Details From NCRG - Rarotonga Intl
To NCAI - Aitutaki
Flight Number -
Tags Decoded
Created
Modified
Stats Distance 143 nm / 264 km
Max Altitude 0 ft / 0 m
Waypoints 3
Social Downloads 4
Likes 0
Share VATSIM

Download

Looking for another format? Having issues loading an existing format? Contact us
Advertisement - Login to hide

Notes

Decoded

Route

NCRG NOLU NCAI

ID Type Via Altitude Latitude Longitude Leg Dist Tot Dist Heading (true) Name
O NCRG APT - 0 ft / 0 m -21.20274˚ -159.81677˚ - 0 nm - -
NOLU FIX - 0 ft / 0 m -20.69450˚ -159.79651˚ 30 nm 30 nm 2° / 2° -
O NCAI APT - 0 ft / 0 m -18.82753˚ -159.77681˚ 112 nm 142 nm 1° / 1° -

Altitude Profile

Advertisement - Login to hide

NCRG

Details ICAO NCRG (RAR)
Name Rarotonga Intl
Region Cook Islands
Timezone Pacific/Rarotonga (UTC-10.0)
Stats Elevation 19 ft / 6 m (AMSL)
Location -21.202739° -159.805555°
Runways 1
Magnetic Variation 13.934° E

METAR

NCRG 181500Z 06008KT 9999 SHRA SCT008 BKN040 OVC090 24/23 Q1007

Decode

TAF

TAF NCRG 181130Z 1812/1912 08005KT 9999 -SHRA SCT012 BKN040 OVC090 PROB40 TEMPO 1812/1912 3000 SHRA BKN015

Decode

Departure Runways

ID Width Length Bearing (true) Bearing (mag) Surface Threshold Offset Overrun Length
08 150 ft / 46 m 7,629 ft / 2,325 m 89.99° 76.06° Concrete 400 ft / 122 m 100 ft / 30 m
26 150 ft / 46 m 7,629 ft / 2,325 m 269.98° 256.05° Concrete 0 ft / 0 m 0 ft / 0 m

NCAI

Details ICAO NCAI (AIT)
Name Aitutaki
Region Cook Islands
Timezone Unknown (UTC+0.0)
Stats Elevation 20 ft / 6 m (AMSL)
Location -18.837078° -159.761026°
Runways 1
Magnetic Variation 13.144° E

METAR

NCAI 181400Z AUTO 36003KT //// ////// 24/24 Q1007.0

Decode

TAF

Not found

Destination Runways

ID Width Length Bearing (true) Bearing (mag) Surface Threshold Offset Overrun Length
14 102 ft / 31 m 6,008 ft / 1,831 m 154.20° 141.06° Asphalt 0 ft / 0 m 0 ft / 0 m
32 102 ft / 31 m 6,008 ft / 1,831 m 334.20° 321.06° Asphalt 0 ft / 0 m 0 ft / 0 m

Popular Alternatives